sensor_id;sensor_type;location;lat;lon;timestamp;temperature;humidity
64685;DHT22;51109;47.414;18.954;2022-07-12T00:02:02;16.60;99.90
64685;DHT22;51109;47.414;18.954;2022-07-12T00:04:28;16.70;99.90
64685;DHT22;51109;47.414;18.954;2022-07-12T00:06:54;16.60;99.90
64685;DHT22;51109;47.414;18.954;2022-07-12T00:09:20;16.60;99.90
64685;DHT22;51109;47.414;18.954;2022-07-12T00:11:46;16.60;99.90
64685;DHT22;51109;47.414;18.954;2022-07-12T00:14:12;16.60;99.90
64685;DHT22;51109;47.414;18.954;2022-07-12T00:16:38;16.50;99.90
64685;DHT22;51109;47.414;18.954;2022-07-12T00:19:04;16.50;99.90
64685;DHT22;51109;47.414;18.954;2022-07-12T00:21:30;16.50;99.90
64685;DHT22;51109;47.414;18.954;2022-07-12T00:23:56;16.50;99.90
64685;DHT22;51109;47.414;18.954;2022-07-12T00:26:22;16.40;99.90
64685;DHT22;51109;47.414;18.954;2022-07-12T00:28:48;16.30;99.90
64685;DHT22;51109;47.414;18.954;2022-07-12T00:31:14;16.30;99.90
64685;DHT22;51109;47.414;18.954;2022-07-12T00:33:40;16.20;99.90
64685;DHT22;51109;47.414;18.954;2022-07-12T00:36:06;16.20;99.90
64685;DHT22;51109;47.414;18.954;2022-07-12T00:38:32;16.10;99.90
64685;DHT22;51109;47.414;18.954;2022-07-12T00:40:58;16.00;99.90
64685;DHT22;51109;47.414;18.954;2022-07-12T00:43:24;15.90;99.90
64685;DHT22;51109;47.414;18.954;2022-07-12T00:45:50;15.80;99.90
64685;DHT22;51109;47.414;18.954;2022-07-12T00:48:17;15.60;99.90
64685;DHT22;51109;47.414;18.954;2022-07-12T00:50:45;15.60;99.90
64685;DHT22;51109;47.414;18.954;2022-07-12T00:53:13;15.60;99.90
64685;DHT22;51109;47.414;18.954;2022-07-12T00:55:40;15.60;99.90
64685;DHT22;51109;47.414;18.954;2022-07-12T00:58:06;15.50;99.90
64685;DHT22;51109;47.414;18.954;2022-07-12T01:00:32;15.50;99.90
64685;DHT22;51109;47.414;18.954;2022-07-12T01:03:01;15.50;99.90
64685;DHT22;51109;47.414;18.954;2022-07-12T01:05:28;15.50;99.90
64685;DHT22;51109;47.414;18.954;2022-07-12T01:07:55;15.50;99.90
64685;DHT22;51109;47.414;18.954;2022-07-12T01:10:21;15.60;99.90
64685;DHT22;51109;47.414;18.954;2022-07-12T01:12:48;15.50;99.90
64685;DHT22;51109;47.414;18.954;2022-07-12T01:15:14;15.50;99.90
64685;DHT22;51109;47.414;18.954;2022-07-12T01:17:41;15.40;99.90
64685;DHT22;51109;47.414;18.954;2022-07-12T01:20:09;15.10;99.90
64685;DHT22;51109;47.414;18.954;2022-07-12T01:22:40;15.00;99.90
64685;DHT22;51109;47.414;18.954;2022-07-12T01:27:33;15.00;99.90
64685;DHT22;51109;47.414;18.954;2022-07-12T01:30:08;15.00;99.90
64685;DHT22;51109;47.414;18.954;2022-07-12T01:32:34;14.90;99.90
64685;DHT22;51109;47.414;18.954;2022-07-12T01:35:03;14.80;99.90
64685;DHT22;51109;47.414;18.954;2022-07-12T01:37:34;14.70;99.90
64685;DHT22;51109;47.414;18.954;2022-07-12T01:40:01;14.70;99.90
64685;DHT22;51109;47.414;18.954;2022-07-12T01:42:29;14.80;99.90
64685;DHT22;51109;47.414;18.954;2022-07-12T01:44:56;14.70;99.90
64685;DHT22;51109;47.414;18.954;2022-07-12T01:47:23;14.60;99.90
64685;DHT22;51109;47.414;18.954;2022-07-12T01:49:49;14.70;99.90
64685;DHT22;51109;47.414;18.954;2022-07-12T01:52:16;14.60;99.90
64685;DHT22;51109;47.414;18.954;2022-07-12T01:54:42;14.50;99.90
64685;DHT22;51109;47.414;18.954;2022-07-12T01:57:09;14.50;99.90
64685;DHT22;51109;47.414;18.954;2022-07-12T01:59:35;14.50;99.90
64685;DHT22;51109;47.414;18.954;2022-07-12T02:02:02;14.50;99.90
64685;DHT22;51109;47.414;18.954;2022-07-12T02:04:29;14.60;99.90
64685;DHT22;51109;47.414;18.954;2022-07-12T02:06:56;14.50;99.90
64685;DHT22;51109;47.414;18.954;2022-07-12T02:09:22;14.50;99.90
64685;DHT22;51109;47.414;18.954;2022-07-12T02:11:48;14.40;99.90
64685;DHT22;51109;47.414;18.954;2022-07-12T02:14:14;14.40;99.90
64685;DHT22;51109;47.414;18.954;2022-07-12T02:16:43;14.40;99.90
64685;DHT22;51109;47.414;18.954;2022-07-12T02:19:11;14.40;99.90
64685;DHT22;51109;47.414;18.954;2022-07-12T02:21:37;14.30;99.90
64685;DHT22;51109;47.414;18.954;2022-07-12T02:24:04;14.20;99.90
64685;DHT22;51109;47.414;18.954;2022-07-12T02:26:32;14.20;99.90
64685;DHT22;51109;47.414;18.954;2022-07-12T02:28:58;14.30;99.90
64685;DHT22;51109;47.414;18.954;2022-07-12T02:31:24;14.40;99.90
64685;DHT22;51109;47.414;18.954;2022-07-12T02:33:51;14.20;99.90
64685;DHT22;51109;47.414;18.954;2022-07-12T02:36:17;14.30;99.90
64685;DHT22;51109;47.414;18.954;2022-07-12T02:38:43;14.30;99.90
64685;DHT22;51109;47.414;18.954;2022-07-12T02:41:09;14.20;99.90
64685;DHT22;51109;47.414;18.954;2022-07-12T02:43:35;14.40;99.90
64685;DHT22;51109;47.414;18.954;2022-07-12T02:46:11;14.50;99.90
64685;DHT22;51109;47.414;18.954;2022-07-12T02:48:38;14.40;99.90
64685;DHT22;51109;47.414;18.954;2022-07-12T02:51:05;14.50;99.90
64685;DHT22;51109;47.414;18.954;2022-07-12T02:53:32;14.40;99.90
64685;DHT22;51109;47.414;18.954;2022-07-12T02:55:59;14.30;99.90
64685;DHT22;51109;47.414;18.954;2022-07-12T02:58:25;14.30;99.90
64685;DHT22;51109;47.414;18.954;2022-07-12T03:00:51;14.20;99.90
64685;DHT22;51109;47.414;18.954;2022-07-12T03:03:17;14.20;99.90
64685;DHT22;51109;47.414;18.954;2022-07-12T03:05:43;14.30;99.90
64685;DHT22;51109;47.414;18.954;2022-07-12T03:08:10;14.30;99.90
64685;DHT22;51109;47.414;18.954;2022-07-12T03:10:36;14.20;99.90
64685;DHT22;51109;47.414;18.954;2022-07-12T03:13:03;14.20;99.90
64685;DHT22;51109;47.414;18.954;2022-07-12T03:15:30;14.30;99.90
64685;DHT22;51109;47.414;18.954;2022-07-12T03:18:00;14.30;99.90
64685;DHT22;51109;47.414;18.954;2022-07-12T03:20:30;14.30;99.90
64685;DHT22;51109;47.414;18.954;2022-07-12T03:22:56;14.30;99.90
64685;DHT22;51109;47.414;18.954;2022-07-12T03:25:22;14.30;99.90
64685;DHT22;51109;47.414;18.954;2022-07-12T03:27:48;14.40;99.90
64685;DHT22;51109;47.414;18.954;2022-07-12T03:30:14;14.30;99.90
64685;DHT22;51109;47.414;18.954;2022-07-12T03:32:41;14.40;99.90
64685;DHT22;51109;47.414;18.954;2022-07-12T03:35:07;14.50;99.90
64685;DHT22;51109;47.414;18.954;2022-07-12T03:37:45;14.50;99.90
64685;DHT22;51109;47.414;18.954;2022-07-12T03:40:12;14.60;99.90
64685;DHT22;51109;47.414;18.954;2022-07-12T03:42:39;14.60;99.90
64685;DHT22;51109;47.414;18.954;2022-07-12T03:45:06;14.60;99.90
64685;DHT22;51109;47.414;18.954;2022-07-12T03:47:32;14.60;99.90
64685;DHT22;51109;47.414;18.954;2022-07-12T03:50:04;14.70;99.90
64685;DHT22;51109;47.414;18.954;2022-07-12T03:52:31;14.80;99.90
64685;DHT22;51109;47.414;18.954;2022-07-12T03:54:58;14.90;99.90
64685;DHT22;51109;47.414;18.954;2022-07-12T03:57:23;15.00;99.90
64685;DHT22;51109;47.414;18.954;2022-07-12T03:59:52;14.90;99.90
64685;DHT22;51109;47.414;18.954;2022-07-12T04:02:18;15.00;99.90
64685;DHT22;51109;47.414;18.954;2022-07-12T04:04:44;15.00;99.90
64685;DHT22;51109;47.414;18.954;2022-07-12T04:07:10;15.00;99.90
64685;DHT22;51109;47.414;18.954;2022-07-12T04:09:36;15.10;99.90
64685;DHT22;51109;47.414;18.954;2022-07-12T04:12:03;15.00;99.90
64685;DHT22;51109;47.414;18.954;2022-07-12T04:14:29;15.20;99.90
64685;DHT22;51109;47.414;18.954;2022-07-12T04:16:56;15.30;99.90
64685;DHT22;51109;47.414;18.954;2022-07-12T04:19:22;15.50;99.90
64685;DHT22;51109;47.414;18.954;2022-07-12T04:21:57;15.60;99.90
64685;DHT22;51109;47.414;18.954;2022-07-12T04:24:23;15.70;99.90
64685;DHT22;51109;47.414;18.954;2022-07-12T04:26:49;15.70;99.90
64685;DHT22;51109;47.414;18.954;2022-07-12T04:29:19;15.70;99.90
64685;DHT22;51109;47.414;18.954;2022-07-12T04:31:45;15.90;99.90
64685;DHT22;51109;47.414;18.954;2022-07-12T04:34:11;16.00;99.90
64685;DHT22;51109;47.414;18.954;2022-07-12T04:36:37;16.20;99.90
64685;DHT22;51109;47.414;18.954;2022-07-12T04:39:03;16.30;99.90
64685;DHT22;51109;47.414;18.954;2022-07-12T04:41:29;16.30;99.90
64685;DHT22;51109;47.414;18.954;2022-07-12T04:43:54;16.40;99.90
64685;DHT22;51109;47.414;18.954;2022-07-12T04:46:20;16.40;99.90
64685;DHT22;51109;47.414;18.954;2022-07-12T04:48:46;16.60;99.90
64685;DHT22;51109;47.414;18.954;2022-07-12T04:51:12;16.70;99.90
64685;DHT22;51109;47.414;18.954;2022-07-12T04:53:40;16.90;99.90
64685;DHT22;51109;47.414;18.954;2022-07-12T04:56:06;17.00;99.90
64685;DHT22;51109;47.414;18.954;2022-07-12T04:58:32;17.10;99.90
64685;DHT22;51109;47.414;18.954;2022-07-12T05:00:58;17.20;99.90
64685;DHT22;51109;47.414;18.954;2022-07-12T05:03:24;17.30;99.90
64685;DHT22;51109;47.414;18.954;2022-07-12T05:05:53;17.30;99.90
64685;DHT22;51109;47.414;18.954;2022-07-12T05:08:20;17.50;99.90
64685;DHT22;51109;47.414;18.954;2022-07-12T05:10:46;17.50;99.90
64685;DHT22;51109;47.414;18.954;2022-07-12T05:13:12;17.70;99.90
64685;DHT22;51109;47.414;18.954;2022-07-12T05:15:37;17.80;99.90
64685;DHT22;51109;47.414;18.954;2022-07-12T05:18:03;18.00;99.90
64685;DHT22;51109;47.414;18.954;2022-07-12T05:20:30;18.20;99.90
64685;DHT22;51109;47.414;18.954;2022-07-12T05:25:23;18.40;99.90
64685;DHT22;51109;47.414;18.954;2022-07-12T05:27:49;18.50;99.90
64685;DHT22;51109;47.414;18.954;2022-07-12T05:30:15;18.50;99.90
64685;DHT22;51109;47.414;18.954;2022-07-12T05:32:40;18.50;99.90
64685;DHT22;51109;47.414;18.954;2022-07-12T05:35:07;18.60;99.90
64685;DHT22;51109;47.414;18.954;2022-07-12T05:37:33;18.70;99.90
64685;DHT22;51109;47.414;18.954;2022-07-12T05:39:59;18.70;99.90
64685;DHT22;51109;47.414;18.954;2022-07-12T05:42:25;18.80;99.90
64685;DHT22;51109;47.414;18.954;2022-07-12T05:44:51;18.90;99.90
64685;DHT22;51109;47.414;18.954;2022-07-12T05:47:16;19.00;99.90
64685;DHT22;51109;47.414;18.954;2022-07-12T05:49:43;19.00;99.90
64685;DHT22;51109;47.414;18.954;2022-07-12T05:52:08;19.10;99.90
64685;DHT22;51109;47.414;18.954;2022-07-12T05:54:53;19.40;99.90
64685;DHT22;51109;47.414;18.954;2022-07-12T05:57:23;19.70;99.90
64685;DHT22;51109;47.414;18.954;2022-07-12T05:59:49;19.80;99.90
64685;DHT22;51109;47.414;18.954;2022-07-12T06:02:14;19.80;99.90
64685;DHT22;51109;47.414;18.954;2022-07-12T06:04:40;19.90;99.90
64685;DHT22;51109;47.414;18.954;2022-07-12T06:07:06;19.90;99.90
64685;DHT22;51109;47.414;18.954;2022-07-12T06:09:32;19.90;99.90
64685;DHT22;51109;47.414;18.954;2022-07-12T06:11:58;20.00;99.90
64685;DHT22;51109;47.414;18.954;2022-07-12T06:14:24;19.80;99.90
64685;DHT22;51109;47.414;18.954;2022-07-12T06:16:50;20.10;99.90
64685;DHT22;51109;47.414;18.954;2022-07-12T06:19:16;20.50;99.90
64685;DHT22;51109;47.414;18.954;2022-07-12T06:21:42;20.80;99.90
64685;DHT22;51109;47.414;18.954;2022-07-12T06:24:07;21.00;99.90
64685;DHT22;51109;47.414;18.954;2022-07-12T06:26:34;21.00;99.90
64685;DHT22;51109;47.414;18.954;2022-07-12T06:29:00;21.10;99.90
64685;DHT22;51109;47.414;18.954;2022-07-12T06:31:26;21.20;99.90
64685;DHT22;51109;47.414;18.954;2022-07-12T06:33:52;21.20;99.90
64685;DHT22;51109;47.414;18.954;2022-07-12T06:36:18;21.20;99.90
64685;DHT22;51109;47.414;18.954;2022-07-12T06:38:43;21.00;99.90
64685;DHT22;51109;47.414;18.954;2022-07-12T06:41:09;21.30;99.90
64685;DHT22;51109;47.414;18.954;2022-07-12T06:43:35;21.70;99.90
64685;DHT22;51109;47.414;18.954;2022-07-12T06:46:01;21.90;99.90
64685;DHT22;51109;47.414;18.954;2022-07-12T06:48:27;21.80;99.90
64685;DHT22;51109;47.414;18.954;2022-07-12T06:50:53;21.60;99.90
64685;DHT22;51109;47.414;18.954;2022-07-12T06:53:18;21.30;99.90
64685;DHT22;51109;47.414;18.954;2022-07-12T06:55:46;21.30;99.90
64685;DHT22;51109;47.414;18.954;2022-07-12T06:58:11;21.40;99.90
64685;DHT22;51109;47.414;18.954;2022-07-12T07:00:38;21.30;99.90
64685;DHT22;51109;47.414;18.954;2022-07-12T07:03:06;21.20;99.90
64685;DHT22;51109;47.414;18.954;2022-07-12T07:05:32;21.20;99.90
64685;DHT22;51109;47.414;18.954;2022-07-12T07:07:58;21.50;99.90
64685;DHT22;51109;47.414;18.954;2022-07-12T07:10:23;21.80;99.90
64685;DHT22;51109;47.414;18.954;2022-07-12T07:12:49;22.00;99.90
64685;DHT22;51109;47.414;18.954;2022-07-12T07:15:15;22.20;99.90
64685;DHT22;51109;47.414;18.954;2022-07-12T07:17:42;22.30;99.90
64685;DHT22;51109;47.414;18.954;2022-07-12T07:20:11;22.10;99.90
64685;DHT22;51109;47.414;18.954;2022-07-12T07:22:37;22.20;99.90
64685;DHT22;51109;47.414;18.954;2022-07-12T07:25:04;22.40;99.90
64685;DHT22;51109;47.414;18.954;2022-07-12T07:27:30;22.60;99.90
64685;DHT22;51109;47.414;18.954;2022-07-12T07:29:56;22.70;99.90
64685;DHT22;51109;47.414;18.954;2022-07-12T07:32:40;22.90;99.90
64685;DHT22;51109;47.414;18.954;2022-07-12T07:35:07;23.00;99.90
64685;DHT22;51109;47.414;18.954;2022-07-12T07:37:33;23.30;99.90
64685;DHT22;51109;47.414;18.954;2022-07-12T07:40:00;23.50;99.90
64685;DHT22;51109;47.414;18.954;2022-07-12T07:42:26;23.60;99.90
64685;DHT22;51109;47.414;18.954;2022-07-12T07:44:52;23.30;99.90
64685;DHT22;51109;47.414;18.954;2022-07-12T07:47:17;23.70;99.90
64685;DHT22;51109;47.414;18.954;2022-07-12T07:49:43;23.70;99.90
64685;DHT22;51109;47.414;18.954;2022-07-12T07:52:09;23.90;99.90
64685;DHT22;51109;47.414;18.954;2022-07-12T07:54:35;24.10;99.90
64685;DHT22;51109;47.414;18.954;2022-07-12T07:57:01;23.70;99.30
64685;DHT22;51109;47.414;18.954;2022-07-12T07:59:27;23.90;99.10
64685;DHT22;51109;47.414;18.954;2022-07-12T08:01:53;23.80;99.20
64685;DHT22;51109;47.414;18.954;2022-07-12T08:04:20;23.80;99.30
64685;DHT22;51109;47.414;18.954;2022-07-12T08:06:47;23.60;98.70
64685;DHT22;51109;47.414;18.954;2022-07-12T08:09:14;23.40;98.80
64685;DHT22;51109;47.414;18.954;2022-07-12T08:11:41;23.30;99.90
64685;DHT22;51109;47.414;18.954;2022-07-12T08:14:08;23.60;99.90
64685;DHT22;51109;47.414;18.954;2022-07-12T08:16:35;23.80;98.80
64685;DHT22;51109;47.414;18.954;2022-07-12T08:19:01;24.00;99.50
64685;DHT22;51109;47.414;18.954;2022-07-12T08:21:27;24.10;99.90
64685;DHT22;51109;47.414;18.954;2022-07-12T08:23:53;24.50;99.90
64685;DHT22;51109;47.414;18.954;2022-07-12T08:26:19;24.70;98.20
64685;DHT22;51109;47.414;18.954;2022-07-12T08:28:45;24.50;98.70
64685;DHT22;51109;47.414;18.954;2022-07-12T08:31:13;24.30;99.00
64685;DHT22;51109;47.414;18.954;2022-07-12T08:33:40;23.70;98.20
64685;DHT22;51109;47.414;18.954;2022-07-12T08:36:07;23.30;99.80
64685;DHT22;51109;47.414;18.954;2022-07-12T08:38:35;23.00;99.50
64685;DHT22;51109;47.414;18.954;2022-07-12T08:41:03;23.10;99.90
64685;DHT22;51109;47.414;18.954;2022-07-12T08:43:32;23.20;99.80
64685;DHT22;51109;47.414;18.954;2022-07-12T08:46:09;23.20;99.90
64685;DHT22;51109;47.414;18.954;2022-07-12T08:48:36;23.40;99.60
64685;DHT22;51109;47.414;18.954;2022-07-12T08:51:04;23.70;99.10
64685;DHT22;51109;47.414;18.954;2022-07-12T08:53:31;23.60;98.70
64685;DHT22;51109;47.414;18.954;2022-07-12T08:55:58;23.70;98.90
64685;DHT22;51109;47.414;18.954;2022-07-12T08:58:24;23.80;98.40
64685;DHT22;51109;47.414;18.954;2022-07-12T09:00:50;23.90;98.20
64685;DHT22;51109;47.414;18.954;2022-07-12T09:03:17;24.00;98.90
64685;DHT22;51109;47.414;18.954;2022-07-12T09:05:49;24.20;97.60
64685;DHT22;51109;47.414;18.954;2022-07-12T09:08:17;24.20;98.00
64685;DHT22;51109;47.414;18.954;2022-07-12T09:13:16;24.20;97.40
64685;DHT22;51109;47.414;18.954;2022-07-12T09:15:42;24.10;99.90
64685;DHT22;51109;47.414;18.954;2022-07-12T09:18:08;24.20;97.30
64685;DHT22;51109;47.414;18.954;2022-07-12T09:20:41;24.00;97.10
64685;DHT22;51109;47.414;18.954;2022-07-12T09:23:11;24.20;96.10
64685;DHT22;51109;47.414;18.954;2022-07-12T09:25:38;24.20;95.70
64685;DHT22;51109;47.414;18.954;2022-07-12T09:28:07;23.90;95.80
64685;DHT22;51109;47.414;18.954;2022-07-12T09:30:33;24.10;97.40
64685;DHT22;51109;47.414;18.954;2022-07-12T09:33:01;24.30;96.00
64685;DHT22;51109;47.414;18.954;2022-07-12T09:36:01;24.40;97.80
64685;DHT22;51109;47.414;18.954;2022-07-12T09:38:37;24.40;96.70
64685;DHT22;51109;47.414;18.954;2022-07-12T09:41:04;24.40;96.70
64685;DHT22;51109;47.414;18.954;2022-07-12T09:43:30;24.70;96.00
64685;DHT22;51109;47.414;18.954;2022-07-12T09:45:56;24.90;95.20
64685;DHT22;51109;47.414;18.954;2022-07-12T09:48:23;24.70;94.30
64685;DHT22;51109;47.414;18.954;2022-07-12T09:50:51;24.20;95.60
64685;DHT22;51109;47.414;18.954;2022-07-12T09:53:22;24.20;94.40
64685;DHT22;51109;47.414;18.954;2022-07-12T09:55:52;24.30;94.10
64685;DHT22;51109;47.414;18.954;2022-07-12T09:58:25;24.50;95.60
64685;DHT22;51109;47.414;18.954;2022-07-12T10:00:52;24.70;94.80
64685;DHT22;51109;47.414;18.954;2022-07-12T10:03:23;24.50;95.00
64685;DHT22;51109;47.414;18.954;2022-07-12T10:05:52;24.50;95.40
64685;DHT22;51109;47.414;18.954;2022-07-12T10:08:20;24.20;93.90
64685;DHT22;51109;47.414;18.954;2022-07-12T10:10:48;24.30;95.70
64685;DHT22;51109;47.414;18.954;2022-07-12T10:13:15;24.70;94.60
64685;DHT22;51109;47.414;18.954;2022-07-12T10:15:42;25.10;94.20
64685;DHT22;51109;47.414;18.954;2022-07-12T10:18:19;25.50;94.00
64685;DHT22;51109;47.414;18.954;2022-07-12T10:20:49;25.50;92.90
64685;DHT22;51109;47.414;18.954;2022-07-12T10:23:31;25.40;94.20
64685;DHT22;51109;47.414;18.954;2022-07-12T10:26:00;25.50;93.40
64685;DHT22;51109;47.414;18.954;2022-07-12T10:31:35;25.40;93.10
64685;DHT22;51109;47.414;18.954;2022-07-12T10:39:27;25.50;92.00
64685;DHT22;51109;47.414;18.954;2022-07-12T10:44:42;25.40;91.10
64685;DHT22;51109;47.414;18.954;2022-07-12T10:47:11;25.30;91.20
64685;DHT22;51109;47.414;18.954;2022-07-12T10:49:49;25.10;91.50
64685;DHT22;51109;47.414;18.954;2022-07-12T10:52:17;25.00;91.50
64685;DHT22;51109;47.414;18.954;2022-07-12T10:57:41;24.90;92.00
64685;DHT22;51109;47.414;18.954;2022-07-12T11:00:15;24.50;92.70
64685;DHT22;51109;47.414;18.954;2022-07-12T11:02:41;23.10;96.60
64685;DHT22;51109;47.414;18.954;2022-07-12T11:05:07;21.90;99.90
64685;DHT22;51109;47.414;18.954;2022-07-12T11:07:34;20.70;99.90
64685;DHT22;51109;47.414;18.954;2022-07-12T11:10:00;20.40;99.90
64685;DHT22;51109;47.414;18.954;2022-07-12T11:12:33;20.30;99.90
64685;DHT22;51109;47.414;18.954;2022-07-12T11:14:59;20.40;99.90
64685;DHT22;51109;47.414;18.954;2022-07-12T11:17:27;20.60;99.90
64685;DHT22;51109;47.414;18.954;2022-07-12T11:22:32;21.50;99.90
64685;DHT22;51109;47.414;18.954;2022-07-12T11:24:59;21.90;99.90
64685;DHT22;51109;47.414;18.954;2022-07-12T11:27:27;22.30;99.90
64685;DHT22;51109;47.414;18.954;2022-07-12T11:30:00;22.50;99.90
64685;DHT22;51109;47.414;18.954;2022-07-12T11:32:40;22.40;99.90
64685;DHT22;51109;47.414;18.954;2022-07-12T11:35:21;23.00;99.90
64685;DHT22;51109;47.414;18.954;2022-07-12T11:37:55;23.10;99.90
64685;DHT22;51109;47.414;18.954;2022-07-12T11:40:22;23.40;99.90
64685;DHT22;51109;47.414;18.954;2022-07-12T11:42:56;23.70;99.90
64685;DHT22;51109;47.414;18.954;2022-07-12T11:45:27;23.90;99.90
64685;DHT22;51109;47.414;18.954;2022-07-12T11:47:55;24.10;99.90
64685;DHT22;51109;47.414;18.954;2022-07-12T11:50:22;24.10;99.90
64685;DHT22;51109;47.414;18.954;2022-07-12T11:52:48;23.80;99.90
64685;DHT22;51109;47.414;18.954;2022-07-12T11:55:13;23.60;99.00
64685;DHT22;51109;47.414;18.954;2022-07-12T11:57:39;23.80;99.90
64685;DHT22;51109;47.414;18.954;2022-07-12T12:00:19;24.30;99.90
64685;DHT22;51109;47.414;18.954;2022-07-12T12:02:51;24.60;99.00
64685;DHT22;51109;47.414;18.954;2022-07-12T12:05:18;24.80;96.20
64685;DHT22;51109;47.414;18.954;2022-07-12T12:07:44;25.00;95.20
64685;DHT22;51109;47.414;18.954;2022-07-12T12:10:11;25.10;95.00
64685;DHT22;51109;47.414;18.954;2022-07-12T12:12:48;25.20;95.00
64685;DHT22;51109;47.414;18.954;2022-07-12T12:15:28;25.50;94.40
64685;DHT22;51109;47.414;18.954;2022-07-12T12:20:27;25.60;92.80
64685;DHT22;51109;47.414;18.954;2022-07-12T12:23:00;25.40;95.10
64685;DHT22;51109;47.414;18.954;2022-07-12T12:25:28;25.30;93.20
64685;DHT22;51109;47.414;18.954;2022-07-12T12:27:58;25.10;92.10
64685;DHT22;51109;47.414;18.954;2022-07-12T12:30:27;25.10;92.80
64685;DHT22;51109;47.414;18.954;2022-07-12T12:32:55;25.00;91.50
64685;DHT22;51109;47.414;18.954;2022-07-12T12:35:38;25.00;92.50
64685;DHT22;51109;47.414;18.954;2022-07-12T12:38:12;25.40;92.00
64685;DHT22;51109;47.414;18.954;2022-07-12T12:40:38;25.40;92.90
64685;DHT22;51109;47.414;18.954;2022-07-12T12:43:11;25.40;92.40
64685;DHT22;51109;47.414;18.954;2022-07-12T12:45:55;25.40;91.80
64685;DHT22;51109;47.414;18.954;2022-07-12T12:48:29;25.30;91.40
64685;DHT22;51109;47.414;18.954;2022-07-12T12:51:07;25.00;91.70
64685;DHT22;51109;47.414;18.954;2022-07-12T12:53:35;24.90;92.10
64685;DHT22;51109;47.414;18.954;2022-07-12T12:56:08;25.00;92.40
64685;DHT22;51109;47.414;18.954;2022-07-12T12:58:37;25.20;92.40
64685;DHT22;51109;47.414;18.954;2022-07-12T13:01:03;25.50;91.20
64685;DHT22;51109;47.414;18.954;2022-07-12T13:03:30;25.60;92.30
64685;DHT22;51109;47.414;18.954;2022-07-12T13:05:56;25.70;90.00
64685;DHT22;51109;47.414;18.954;2022-07-12T13:08:23;25.70;90.70
64685;DHT22;51109;47.414;18.954;2022-07-12T13:10:49;25.70;91.20
64685;DHT22;51109;47.414;18.954;2022-07-12T13:13:35;25.60;89.40
64685;DHT22;51109;47.414;18.954;2022-07-12T13:16:01;25.90;90.20
64685;DHT22;51109;47.414;18.954;2022-07-12T13:18:27;26.20;89.80
64685;DHT22;51109;47.414;18.954;2022-07-12T13:20:53;26.40;86.80
64685;DHT22;51109;47.414;18.954;2022-07-12T13:23:19;26.20;84.90
64685;DHT22;51109;47.414;18.954;2022-07-12T13:25:45;26.40;83.40
64685;DHT22;51109;47.414;18.954;2022-07-12T13:28:11;26.40;84.00
64685;DHT22;51109;47.414;18.954;2022-07-12T13:30:37;26.20;83.30
64685;DHT22;51109;47.414;18.954;2022-07-12T13:33:03;26.30;82.60
64685;DHT22;51109;47.414;18.954;2022-07-12T13:35:29;26.40;83.40
64685;DHT22;51109;47.414;18.954;2022-07-12T13:37:55;26.70;84.40
64685;DHT22;51109;47.414;18.954;2022-07-12T13:40:22;26.90;81.80
64685;DHT22;51109;47.414;18.954;2022-07-12T13:42:52;26.90;80.60
64685;DHT22;51109;47.414;18.954;2022-07-12T13:45:23;26.90;78.20
64685;DHT22;51109;47.414;18.954;2022-07-12T13:47:50;26.70;78.80
64685;DHT22;51109;47.414;18.954;2022-07-12T13:50:17;26.80;79.30
64685;DHT22;51109;47.414;18.954;2022-07-12T13:52:45;26.80;77.80
64685;DHT22;51109;47.414;18.954;2022-07-12T13:55:12;26.60;78.70
64685;DHT22;51109;47.414;18.954;2022-07-12T13:57:39;26.60;78.30
64685;DHT22;51109;47.414;18.954;2022-07-12T14:00:10;26.40;77.00
64685;DHT22;51109;47.414;18.954;2022-07-12T14:02:42;26.60;78.30
64685;DHT22;51109;47.414;18.954;2022-07-12T14:05:10;26.80;81.00
64685;DHT22;51109;47.414;18.954;2022-07-12T14:07:37;26.90;77.00
64685;DHT22;51109;47.414;18.954;2022-07-12T14:10:04;27.10;78.60
64685;DHT22;51109;47.414;18.954;2022-07-12T14:12:31;27.20;76.70
64685;DHT22;51109;47.414;18.954;2022-07-12T14:14:58;27.40;77.30
64685;DHT22;51109;47.414;18.954;2022-07-12T14:17:40;27.40;71.00
64685;DHT22;51109;47.414;18.954;2022-07-12T14:20:06;27.00;72.30
64685;DHT22;51109;47.414;18.954;2022-07-12T14:22:33;26.90;73.70
64685;DHT22;51109;47.414;18.954;2022-07-12T14:24:59;26.80;74.80
64685;DHT22;51109;47.414;18.954;2022-07-12T14:27:25;26.80;76.20
64685;DHT22;51109;47.414;18.954;2022-07-12T14:29:51;26.70;77.10
64685;DHT22;51109;47.414;18.954;2022-07-12T14:32:17;26.30;74.50
64685;DHT22;51109;47.414;18.954;2022-07-12T14:34:43;26.30;76.60
64685;DHT22;51109;47.414;18.954;2022-07-12T14:37:09;25.90;74.60
64685;DHT22;51109;47.414;18.954;2022-07-12T14:39:35;25.90;75.40
64685;DHT22;51109;47.414;18.954;2022-07-12T14:42:01;26.20;74.60
64685;DHT22;51109;47.414;18.954;2022-07-12T14:44:27;26.30;74.20
64685;DHT22;51109;47.414;18.954;2022-07-12T14:46:53;26.20;75.20
64685;DHT22;51109;47.414;18.954;2022-07-12T14:49:20;26.10;75.10
64685;DHT22;51109;47.414;18.954;2022-07-12T14:51:46;26.00;77.10
64685;DHT22;51109;47.414;18.954;2022-07-12T14:54:12;25.90;76.50
64685;DHT22;51109;47.414;18.954;2022-07-12T14:56:38;26.10;77.00
64685;DHT22;51109;47.414;18.954;2022-07-12T14:59:04;26.10;75.60
64685;DHT22;51109;47.414;18.954;2022-07-12T15:01:32;25.80;76.60
64685;DHT22;51109;47.414;18.954;2022-07-12T15:03:58;25.70;76.20
64685;DHT22;51109;47.414;18.954;2022-07-12T15:06:24;25.70;76.00
64685;DHT22;51109;47.414;18.954;2022-07-12T15:08:53;25.60;76.00
64685;DHT22;51109;47.414;18.954;2022-07-12T15:11:19;26.00;75.30
64685;DHT22;51109;47.414;18.954;2022-07-12T15:13:46;26.60;76.30
64685;DHT22;51109;47.414;18.954;2022-07-12T15:16:12;26.80;75.60
64685;DHT22;51109;47.414;18.954;2022-07-12T15:18:38;26.50;75.40
64685;DHT22;51109;47.414;18.954;2022-07-12T15:21:04;26.20;77.60
64685;DHT22;51109;47.414;18.954;2022-07-12T15:23:30;25.90;78.20
64685;DHT22;51109;47.414;18.954;2022-07-12T15:25:56;26.10;78.40
64685;DHT22;51109;47.414;18.954;2022-07-12T15:28:25;26.30;79.30
64685;DHT22;51109;47.414;18.954;2022-07-12T15:30:51;26.40;80.30
64685;DHT22;51109;47.414;18.954;2022-07-12T15:33:17;26.30;79.90
64685;DHT22;51109;47.414;18.954;2022-07-12T15:35:43;26.10;80.60
64685;DHT22;51109;47.414;18.954;2022-07-12T15:38:09;25.70;81.60
64685;DHT22;51109;47.414;18.954;2022-07-12T15:40:35;25.70;81.30
64685;DHT22;51109;47.414;18.954;2022-07-12T15:43:03;25.50;83.30
64685;DHT22;51109;47.414;18.954;2022-07-12T15:45:29;25.40;84.00